Wilberforce, OH (45384)

11:55 PM EST on January 18, 2017 (GMT -0500)
SPCLA | | Change Station

Elev 1033 ft 39.71 °N, 83.85 °W | Updated 6 minutes ago

Overcast
Overcast
38.1 °F
Feels Like 38 °F
N
3.0
Wind Variable Wind from WSW
Gusts 6.0 mph

Today
High -- | Low -- °F
--% Chance of Precip.
Yesterday
High -- | Low -- °F
Precip. -- in
Pressure 30.14 in
Visibility 10.0 miles
Clouds Overcast 500 ft
Windchill 38 °F
Dew Point 37 °F
Humidity 94%
Rainfall 0.00 in
Snow Depth Not available.
7:53 AM 5:39 PM
Waning Gibbous, 57% visible
METAR KSGH 190356Z AUTO 26006KT 10SM OVC005 03/02 A3011 RMK AO2 SLP207 T00280022
Pressure 30.14 in
Visibility 10.0 miles
Clouds Overcast 500 ft
Windchill 38 °F
Dew Point 37 °F
Humidity 94%
Rainfall 0.00 in
Snow Depth Not available.
7:53 AM 5:39 PM
Waning Gibbous, 57% visible
METAR KSGH 190356Z AUTO 26006KT 10SM OVC005 03/02 A3011 RMK AO2 SLP207 T00280022

Get Your Daily Forecast Email!

Thanks for signing up!

Be on the lookout for a verification email in your inbox.

You'll start receiving the daily forecast at 8 AM.

×

10-Day Weather Forecast

Almanac

Astronomy

Jan. 18, 2017 Rise Set
Actual Time
Civil Twilight
Nautical Twilight
Astronomical Twilight
Moon
Length of Visible Light
Length of Day
Tomorrow will be .
, % of the Moon is Illuminated

Today's Extremes

State Highs State Lows

Community

WunderPhotos

Upload Photos

1,962,540 photos uploaded!

WunderBlog® & News

Nearby

Air Quality

  Air Quality AQ Index Pollutant
Not available.

Snow Depth

Station Depth Elevation

Earthquake Activity

City Distance Mag. Time & Date
Minimum magnitude displayed is 2.5.

Coastal Water Temperatures

Place Temperature

Stations

Nearby Weather Stations

Station Location Temp. Windchill Dew Point Humidity Wind Precip. Elev Updated Type
                   

Watches & Warnings

There are currently no watches in effect.